createdAt,value
2023-01-28T00:00:56.656Z,2.78
2023-01-28T00:03:23.386Z,1.80
2023-01-28T00:05:50.156Z,2.20
2023-01-28T00:08:16.931Z,2.95
2023-01-28T00:10:43.722Z,2.67
2023-01-28T00:13:15.096Z,3.85
2023-01-28T00:15:42.621Z,3.30
2023-01-28T00:18:09.674Z,3.42
2023-01-28T00:20:36.710Z,3.17
2023-01-28T00:23:03.811Z,3.20
2023-01-28T00:25:31.041Z,2.97
2023-01-28T00:27:57.746Z,3.40
2023-01-28T00:30:24.386Z,2.80
2023-01-28T00:32:51.138Z,3.67
2023-01-28T00:35:17.987Z,3.70
2023-01-28T00:37:47.084Z,3.47
2023-01-28T00:40:13.960Z,2.83
2023-01-28T00:42:40.792Z,2.55
2023-01-28T00:45:08.014Z,2.97
2023-01-28T00:47:34.706Z,3.30
2023-01-28T00:50:03.095Z,3.03
2023-01-28T00:52:30.067Z,2.35
2023-01-28T00:54:57.446Z,3.30
2023-01-28T00:57:24.254Z,3.30
2023-01-28T00:59:50.942Z,3.60
2023-01-28T01:02:17.709Z,2.40
2023-01-28T01:04:55.057Z,4.57
2023-01-28T01:07:32.379Z,3.90
2023-01-28T01:10:01.026Z,4.32
2023-01-28T01:12:28.584Z,4.27
2023-01-28T01:14:56.441Z,3.75
2023-01-28T01:17:23.304Z,3.92
2023-01-28T01:19:49.944Z,3.35
2023-01-28T01:22:16.692Z,3.13
2023-01-28T01:24:43.522Z,3.97
2023-01-28T01:27:10.230Z,3.80
2023-01-28T01:29:37.079Z,4.50
2023-01-28T01:32:04.034Z,3.58
2023-01-28T01:34:31.168Z,4.55
2023-01-28T01:36:57.918Z,3.20
2023-01-28T01:39:24.652Z,4.22
2023-01-28T01:41:51.437Z,3.55
2023-01-28T01:44:59.829Z,3.88
2023-01-28T01:47:38.509Z,4.00
2023-01-28T01:50:20.609Z,4.10
2023-01-28T01:52:50.884Z,3.10
2023-01-28T01:55:21.428Z,4.35
2023-01-28T01:57:52.131Z,3.75
2023-01-28T02:00:18.984Z,2.95
2023-01-28T02:02:50.175Z,3.07
2023-01-28T02:05:19.986Z,3.17
2023-01-28T02:07:49.493Z,3.65
2023-01-28T02:10:16.766Z,3.38
2023-01-28T02:12:47.648Z,3.83
2023-01-28T02:15:20.660Z,3.47
2023-01-28T02:17:49.764Z,3.15
2023-01-28T02:20:23.251Z,3.50
2023-01-28T02:23:21.500Z,3.90
2023-01-28T02:26:37.473Z,3.80
2023-01-28T02:29:21.302Z,4.20
2023-01-28T02:32:16.287Z,3.60
2023-01-28T02:34:53.994Z,4.05
2023-01-28T02:37:41.352Z,4.47
2023-01-28T02:40:12.327Z,3.35
2023-01-28T02:42:40.687Z,3.27
2023-01-28T02:45:24.096Z,4.07
2023-01-28T02:47:57.965Z,4.43
2023-01-28T02:50:31.539Z,4.20
2023-01-28T02:53:43.329Z,3.75
2023-01-28T02:56:29.480Z,3.30
2023-01-28T02:59:28.043Z,3.13
2023-01-28T03:02:02.803Z,3.35
2023-01-28T03:04:34.697Z,2.90
2023-01-28T03:07:05.751Z,3.60
2023-01-28T03:09:33.766Z,2.90
2023-01-28T03:12:26.554Z,4.00
2023-01-28T03:15:27.276Z,3.80
2023-01-28T03:18:22.095Z,3.42
2023-01-28T03:21:21.357Z,3.60
2023-01-28T03:24:28.009Z,4.17
2023-01-28T03:27:22.385Z,2.75
2023-01-28T03:30:12.572Z,3.13
2023-01-28T03:32:59.984Z,3.72
2023-01-28T03:35:49.118Z,3.38
2023-01-28T03:38:22.965Z,3.10
2023-01-28T03:40:58.319Z,3.00
2023-01-28T03:43:25.284Z,3.72
2023-01-28T03:45:52.550Z,2.83
2023-01-28T03:48:20.866Z,3.67
2023-01-28T03:50:48.316Z,3.40
2023-01-28T03:53:16.953Z,3.80
2023-01-28T03:55:46.841Z,3.45
2023-01-28T03:58:14.105Z,3.00
2023-01-28T04:00:43.782Z,3.97
2023-01-28T04:03:16.076Z,3.37
2023-01-28T04:05:47.239Z,2.90
2023-01-28T04:08:14.718Z,3.58
2023-01-28T04:10:41.425Z,3.88
2023-01-28T04:13:07.944Z,3.35
2023-01-28T04:15:35.951Z,3.80
2023-01-28T04:18:02.494Z,3.42
2023-01-28T04:20:29.408Z,3.08
2023-01-28T04:22:55.980Z,2.72
2023-01-28T04:25:22.850Z,4.38
2023-01-28T04:27:49.511Z,3.63
2023-01-28T04:30:16.430Z,3.00
2023-01-28T04:32:42.936Z,4.18
2023-01-28T04:35:09.829Z,4.05
2023-01-28T04:37:36.591Z,3.50
2023-01-28T04:40:03.726Z,3.60
2023-01-28T04:42:30.202Z,3.40
2023-01-28T04:44:56.706Z,3.28
2023-01-28T04:47:23.302Z,3.08
2023-01-28T04:49:49.852Z,3.45
2023-01-28T04:52:16.626Z,3.90
2023-01-28T04:54:43.098Z,4.10
2023-01-28T04:57:09.886Z,3.05
2023-01-28T04:59:36.813Z,2.78
2023-01-28T05:02:03.853Z,4.10
2023-01-28T05:04:30.403Z,2.97
2023-01-28T05:06:58.631Z,3.13
2023-01-28T05:09:25.307Z,3.00
2023-01-28T05:11:51.918Z,4.03
2023-01-28T05:14:18.571Z,3.53
2023-01-28T05:16:45.177Z,3.60
2023-01-28T05:19:11.776Z,3.75
2023-01-28T05:21:38.328Z,3.03
2023-01-28T05:24:05.306Z,3.67
2023-01-28T05:26:31.913Z,3.70
2023-01-28T05:28:59.697Z,3.43
2023-01-28T05:31:26.471Z,3.35
2023-01-28T05:33:53.235Z,3.90
2023-01-28T05:36:20.184Z,3.30
2023-01-28T05:38:46.778Z,4.13
2023-01-28T05:41:13.236Z,3.83
2023-01-28T05:43:39.862Z,3.97
2023-01-28T05:46:06.484Z,3.10
2023-01-28T05:48:33.011Z,3.50
2023-01-28T05:50:59.987Z,3.50
2023-01-28T05:53:26.600Z,3.67
2023-01-28T05:55:53.878Z,3.17
2023-01-28T05:58:21.606Z,3.35
2023-01-28T06:00:48.435Z,3.45
2023-01-28T06:03:15.225Z,3.25
2023-01-28T06:05:41.760Z,3.67
2023-01-28T06:08:08.832Z,3.80
2023-01-28T06:10:35.567Z,3.58
2023-01-28T06:13:02.326Z,3.60
2023-01-28T06:15:29.087Z,3.40
2023-01-28T06:17:55.819Z,3.60
2023-01-28T06:20:22.718Z,3.28
2023-01-28T06:22:52.742Z,4.03
2023-01-28T06:25:19.847Z,3.42
2023-01-28T06:27:46.506Z,4.03
2023-01-28T06:30:13.609Z,3.80
2023-01-28T06:32:40.533Z,3.70
2023-01-28T06:35:08.269Z,3.83
2023-01-28T06:37:35.214Z,3.72
2023-01-28T06:40:01.788Z,4.38
2023-01-28T06:42:28.311Z,3.73
2023-01-28T06:44:54.765Z,4.03
2023-01-28T06:47:21.346Z,4.40
2023-01-28T06:49:47.927Z,4.00
2023-01-28T06:52:14.652Z,3.30
2023-01-28T06:54:41.273Z,4.43
2023-01-28T06:57:07.912Z,3.58
2023-01-28T06:59:34.496Z,4.10
2023-01-28T07:02:01.214Z,3.60
2023-01-28T07:04:27.868Z,3.03
2023-01-28T07:06:54.468Z,4.40
2023-01-28T07:09:21.088Z,3.70
2023-01-28T07:11:47.579Z,4.18
2023-01-28T07:14:14.195Z,4.65
2023-01-28T07:16:40.715Z,4.65
2023-01-28T07:19:07.300Z,3.90
2023-01-28T07:21:33.895Z,4.57
2023-01-28T07:24:00.543Z,4.18
2023-01-28T07:26:27.230Z,3.80
2023-01-28T07:28:53.958Z,3.75
2023-01-28T07:31:20.671Z,3.77
2023-01-28T07:33:47.283Z,4.00
2023-01-28T07:36:13.911Z,4.65
2023-01-28T07:38:40.414Z,4.50
2023-01-28T07:41:07.104Z,4.10
2023-01-28T07:43:33.707Z,3.80
2023-01-28T07:46:02.057Z,3.63
2023-01-28T07:48:29.387Z,4.38
2023-01-28T07:50:59.344Z,4.00
2023-01-28T07:53:26.138Z,5.30
2023-01-28T07:55:52.748Z,4.17
2023-01-28T07:58:19.336Z,5.25
2023-01-28T08:00:45.980Z,5.38
2023-01-28T08:03:15.990Z,4.90
2023-01-28T08:05:47.902Z,3.88
2023-01-28T08:08:15.014Z,4.37
2023-01-28T08:10:41.909Z,4.72
2023-01-28T08:13:10.294Z,4.60
2023-01-28T08:15:37.066Z,5.15
2023-01-28T08:18:05.652Z,5.07
2023-01-28T08:20:32.775Z,6.00
2023-01-28T08:23:12.666Z,4.65
2023-01-28T08:25:39.348Z,5.40
2023-01-28T08:28:07.004Z,4.82
2023-01-28T08:30:35.155Z,4.65
2023-01-28T08:33:01.881Z,4.10
2023-01-28T08:35:29.019Z,4.85
2023-01-28T08:37:56.302Z,5.30
2023-01-28T08:40:23.091Z,4.75
2023-01-28T08:42:54.461Z,5.35
2023-01-28T08:45:27.387Z,5.30
2023-01-28T08:47:55.997Z,5.15
2023-01-28T08:50:23.992Z,4.90
2023-01-28T08:52:57.025Z,5.68
2023-01-28T08:55:24.567Z,4.38
2023-01-28T08:57:51.946Z,5.00
2023-01-28T09:00:19.367Z,4.70
2023-01-28T09:02:46.240Z,4.55
2023-01-28T09:05:13.291Z,4.43
2023-01-28T09:07:39.866Z,4.97
2023-01-28T09:10:07.113Z,5.00
2023-01-28T09:12:33.822Z,4.15
2023-01-28T09:15:00.428Z,4.70
2023-01-28T09:17:27.085Z,4.80
2023-01-28T09:19:53.672Z,4.45
2023-01-28T09:22:20.236Z,4.50
2023-01-28T09:24:47.004Z,4.18
2023-01-28T09:27:13.704Z,4.90
2023-01-28T09:29:40.759Z,4.80
2023-01-28T09:32:08.081Z,4.97
2023-01-28T09:34:34.712Z,4.93
2023-01-28T09:37:01.579Z,5.68
2023-01-28T09:39:31.084Z,4.85
2023-01-28T09:42:32.857Z,5.60
2023-01-28T09:45:13.162Z,5.28
2023-01-28T09:47:52.650Z,5.07
2023-01-28T09:50:34.195Z,4.85
2023-01-28T09:53:13.706Z,4.60
2023-01-28T09:55:45.198Z,4.70
2023-01-28T09:58:17.210Z,4.50
2023-01-28T10:00:49.177Z,5.33
2023-01-28T10:03:36.809Z,4.68
2023-01-28T10:06:48.930Z,5.43
2023-01-28T10:09:22.096Z,5.22
2023-01-28T10:12:28.445Z,4.80
2023-01-28T10:15:22.028Z,5.27
2023-01-28T10:17:51.400Z,4.05
2023-01-28T10:20:31.089Z,5.38
2023-01-28T10:23:15.712Z,5.03
2023-01-28T10:25:48.333Z,5.40
2023-01-28T10:28:21.374Z,5.37
2023-01-28T10:30:49.219Z,3.95
2023-01-28T10:33:36.276Z,5.53
2023-01-28T10:36:04.199Z,3.13
2023-01-28T10:38:33.211Z,4.75
2023-01-28T10:41:03.106Z,4.83
2023-01-28T10:43:36.707Z,4.20
2023-01-28T10:46:09.870Z,4.32
2023-01-28T10:48:43.292Z,3.95
2023-01-28T10:51:09.903Z,4.05
2023-01-28T10:53:43.317Z,1.90
2023-01-28T10:56:16.107Z,3.90
2023-01-28T10:59:03.122Z,2.50
2023-01-28T11:01:45.549Z,2.08
2023-01-28T11:04:33.094Z,2.03
2023-01-28T11:07:06.085Z,1.97
2023-01-28T11:09:36.956Z,1.60
2023-01-28T11:12:19.667Z,1.67
2023-01-28T11:15:05.894Z,2.03
2023-01-28T11:17:38.185Z,2.03
2023-01-28T11:20:21.402Z,1.47
2023-01-28T11:22:49.467Z,2.40
2023-01-28T11:25:21.966Z,2.72
2023-01-28T11:27:53.917Z,2.75
2023-01-28T11:30:25.437Z,3.80
2023-01-28T11:32:57.553Z,2.23
2023-01-28T11:35:30.892Z,1.88
2023-01-28T11:37:59.059Z,2.70
2023-01-28T11:40:26.870Z,2.10
2023-01-28T11:42:57.966Z,1.55
2023-01-28T11:45:50.919Z,2.40
2023-01-28T11:48:38.873Z,2.88
2023-01-28T11:51:23.158Z,1.92
2023-01-28T11:53:57.529Z,2.13
2023-01-28T11:56:53.362Z,1.90
2023-01-28T12:00:04.756Z,1.73
2023-01-28T12:02:37.131Z,1.83
2023-01-28T12:05:24.468Z,1.95
2023-01-28T12:07:51.457Z,1.98
2023-01-28T12:10:38.294Z,1.90
2023-01-28T12:13:32.078Z,2.23
2023-01-28T12:16:43.170Z,1.88
2023-01-28T12:19:22.063Z,2.05
2023-01-28T12:22:05.678Z,2.10
2023-01-28T12:24:49.298Z,1.77
2023-01-28T12:27:34.918Z,1.90
2023-01-28T12:30:39.407Z,2.20
2023-01-28T12:33:51.465Z,1.65
2023-01-28T12:37:14.708Z,2.35
2023-01-28T12:40:14.139Z,2.30
2023-01-28T12:42:56.639Z,2.27
2023-01-28T12:45:40.800Z,4.70
2023-01-28T12:48:20.818Z,2.75
2023-01-28T12:50:57.511Z,1.95
2023-01-28T12:53:31.074Z,2.47
2023-01-28T12:56:11.024Z,2.47
2023-01-28T12:58:45.213Z,1.17
2023-01-28T13:01:16.653Z,1.48
2023-01-28T13:04:07.078Z,1.10
2023-01-28T13:06:49.566Z,1.40
2023-01-28T13:09:21.547Z,1.23
2023-01-28T13:11:51.445Z,1.50
2023-01-28T13:14:20.805Z,1.60
2023-01-28T13:16:47.525Z,0.98
2023-01-28T13:19:25.486Z,1.90
2023-01-28T13:21:53.783Z,1.90
2023-01-28T13:24:24.115Z,1.92
2023-01-28T13:26:57.829Z,1.88
2023-01-28T13:29:26.854Z,1.42
2023-01-28T13:31:56.561Z,1.02
2023-01-28T13:34:36.107Z,1.23
2023-01-28T13:37:28.255Z,1.70
2023-01-28T13:40:07.858Z,1.90
2023-01-28T13:42:36.672Z,1.80
2023-01-28T13:45:19.333Z,1.60
2023-01-28T13:47:50.174Z,1.33
2023-01-28T13:50:20.789Z,1.65
2023-01-28T13:53:05.092Z,2.10
2023-01-28T13:55:44.544Z,1.45
2023-01-28T13:58:43.109Z,1.58
2023-01-28T14:02:08.255Z,1.67
2023-01-28T14:05:09.856Z,1.23
2023-01-28T14:07:57.334Z,0.70
2023-01-28T14:10:54.754Z,1.45
2023-01-28T14:13:49.002Z,1.65
2023-01-28T14:16:35.464Z,1.40
2023-01-28T14:19:03.147Z,1.05
2023-01-28T14:21:33.936Z,1.45
2023-01-28T14:24:00.775Z,1.02
2023-01-28T14:26:50.488Z,1.83
2023-01-28T14:29:29.350Z,1.53
2023-01-28T14:31:56.370Z,1.40
2023-01-28T14:34:34.876Z,1.08
2023-01-28T14:37:07.860Z,1.27
2023-01-28T14:39:47.083Z,1.42
2023-01-28T14:42:26.245Z,1.30
2023-01-28T14:45:14.659Z,1.63
2023-01-28T14:47:52.391Z,0.77
2023-01-28T14:50:35.613Z,1.88
2023-01-28T14:53:19.864Z,1.38
2023-01-28T14:55:56.449Z,1.30
2023-01-28T14:58:29.922Z,1.10
2023-01-28T15:01:00.899Z,0.82
2023-01-28T15:03:29.614Z,0.90
2023-01-28T15:06:14.043Z,0.93
2023-01-28T15:08:41.088Z,0.60
2023-01-28T15:11:11.531Z,0.52
2023-01-28T15:13:43.000Z,0.60
2023-01-28T15:16:18.715Z,0.77
2023-01-28T15:18:45.926Z,0.90
2023-01-28T15:21:12.693Z,0.80
2023-01-28T15:23:43.397Z,1.73
2023-01-28T15:26:20.509Z,1.10
2023-01-28T15:28:49.153Z,1.00
2023-01-28T15:31:23.345Z,1.60
2023-01-28T15:33:59.441Z,1.03
2023-01-28T15:36:27.727Z,1.08
2023-01-28T15:39:00.611Z,1.38
2023-01-28T15:41:36.032Z,1.45
2023-01-28T15:44:04.757Z,1.10
2023-01-28T15:46:32.106Z,1.53
2023-01-28T15:49:04.876Z,1.35
2023-01-28T15:51:34.269Z,1.95
2023-01-28T15:54:10.169Z,1.27
2023-01-28T15:56:37.576Z,1.38
2023-01-28T15:59:26.771Z,1.80
2023-01-28T16:02:19.989Z,1.73
2023-01-28T16:04:59.918Z,2.55
2023-01-28T16:07:29.558Z,2.65
2023-01-28T16:09:59.832Z,2.20
2023-01-28T16:12:27.538Z,2.50
2023-01-28T16:15:01.963Z,3.40
2023-01-28T16:17:32.035Z,2.92
2023-01-28T16:20:05.845Z,3.20
2023-01-28T16:22:37.356Z,3.40
2023-01-28T16:25:22.092Z,3.57
2023-01-28T16:27:49.432Z,3.88
2023-01-28T16:30:17.167Z,3.42
2023-01-28T16:32:44.826Z,3.22
2023-01-28T16:35:18.877Z,2.78
2023-01-28T16:37:46.936Z,3.60
2023-01-28T16:40:16.613Z,3.20
2023-01-28T16:42:48.901Z,4.25
2023-01-28T16:45:23.326Z,2.95
2023-01-28T16:47:51.948Z,2.70
2023-01-28T16:50:21.930Z,3.10
2023-01-28T16:52:53.991Z,3.75
2023-01-28T16:55:22.901Z,3.95
2023-01-28T16:57:54.252Z,3.83
2023-01-28T17:00:23.717Z,3.00
2023-01-28T17:02:57.404Z,3.13
2023-01-28T17:05:24.798Z,2.88
2023-01-28T17:07:54.346Z,3.63
2023-01-28T17:10:21.089Z,3.33
2023-01-28T17:12:49.160Z,3.40
2023-01-28T17:15:17.050Z,3.83
2023-01-28T17:17:44.459Z,4.20
2023-01-28T17:20:11.848Z,4.15
2023-01-28T17:22:38.687Z,3.25
2023-01-28T17:25:05.962Z,3.70
2023-01-28T17:27:32.877Z,3.57
2023-01-28T17:29:59.935Z,4.00
2023-01-28T17:32:27.401Z,3.78
2023-01-28T17:34:54.224Z,3.67
2023-01-28T17:37:21.081Z,3.20
2023-01-28T17:39:48.131Z,3.77
2023-01-28T17:42:19.992Z,4.40
2023-01-28T17:44:54.015Z,3.65
2023-01-28T17:47:21.296Z,4.38
2023-01-28T17:49:49.975Z,4.00
2023-01-28T17:52:16.972Z,4.27
2023-01-28T17:54:44.770Z,3.90
2023-01-28T17:57:13.790Z,3.72
2023-01-28T17:59:40.512Z,3.83
2023-01-28T18:02:11.047Z,4.20
2023-01-28T18:04:39.877Z,4.03
2023-01-28T18:07:13.599Z,3.30
2023-01-28T18:09:44.899Z,3.92
2023-01-28T18:12:14.200Z,3.95
2023-01-28T18:14:41.331Z,4.10
2023-01-28T18:17:08.787Z,3.57
2023-01-28T18:19:35.579Z,3.92
2023-01-28T18:22:02.516Z,4.28
2023-01-28T18:24:30.771Z,4.40
2023-01-28T18:27:00.163Z,4.70
2023-01-28T18:29:30.587Z,3.80
2023-01-28T18:31:58.271Z,3.80
2023-01-28T18:34:31.422Z,4.22
2023-01-28T18:36:58.955Z,4.28
2023-01-28T18:39:31.075Z,5.80
2023-01-28T18:41:58.906Z,9.20
2023-01-28T18:44:27.931Z,6.60
2023-01-28T18:46:54.675Z,6.95
2023-01-28T18:49:21.675Z,7.25
2023-01-28T18:51:51.051Z,6.38
2023-01-28T18:54:17.956Z,6.50
2023-01-28T18:56:44.772Z,7.57
2023-01-28T18:59:13.864Z,6.60
2023-01-28T19:01:42.840Z,5.75
2023-01-28T19:04:10.767Z,6.20
2023-01-28T19:06:37.751Z,5.87
2023-01-28T19:09:07.263Z,4.97
2023-01-28T19:11:35.223Z,5.18
2023-01-28T19:14:02.073Z,5.38
2023-01-28T19:16:29.321Z,3.95
2023-01-28T19:18:58.980Z,4.07
2023-01-28T19:21:26.744Z,4.32
2023-01-28T19:23:57.773Z,5.32
2023-01-28T19:26:26.516Z,5.25
2023-01-28T19:28:53.616Z,5.90
2023-01-28T19:31:22.196Z,5.50
2023-01-28T19:33:49.938Z,3.58
2023-01-28T19:36:17.366Z,4.13
2023-01-28T19:38:44.874Z,4.43
2023-01-28T19:41:16.453Z,4.13
2023-01-28T19:43:43.730Z,4.33
2023-01-28T19:46:14.749Z,5.18
2023-01-28T19:48:41.598Z,4.25
2023-01-28T19:51:09.647Z,4.70
2023-01-28T19:53:37.840Z,5.00
2023-01-28T19:56:14.216Z,4.13
2023-01-28T19:58:43.271Z,3.90
2023-01-28T20:01:16.046Z,4.68
2023-01-28T20:03:46.085Z,4.47
2023-01-28T20:06:15.468Z,4.90
2023-01-28T20:08:44.360Z,4.47
2023-01-28T20:11:16.468Z,5.32
2023-01-28T20:13:45.876Z,4.88
2023-01-28T20:16:22.069Z,5.72
2023-01-28T20:18:50.968Z,5.68
2023-01-28T20:21:19.228Z,4.90
2023-01-28T20:23:56.809Z,4.78
2023-01-28T20:26:27.379Z,5.25
2023-01-28T20:28:54.271Z,4.43
2023-01-28T20:31:21.208Z,4.68
2023-01-28T20:33:48.570Z,5.90
2023-01-28T20:36:15.758Z,6.32
2023-01-28T20:38:45.912Z,3.75
2023-01-28T20:41:14.758Z,4.93
2023-01-28T20:43:43.502Z,4.10
2023-01-28T20:46:14.029Z,5.33
2023-01-28T20:48:41.149Z,4.95
2023-01-28T20:51:13.373Z,5.53
2023-01-28T20:53:40.769Z,5.70
2023-01-28T20:56:08.800Z,6.38
2023-01-28T20:58:35.582Z,6.03
2023-01-28T21:01:02.926Z,6.72
2023-01-28T21:03:29.757Z,7.88
2023-01-28T21:05:56.768Z,6.78
2023-01-28T21:08:23.748Z,7.20
2023-01-28T21:10:50.456Z,6.87
2023-01-28T21:13:17.104Z,7.03
2023-01-28T21:15:54.673Z,6.32
2023-01-28T21:18:22.382Z,6.10
2023-01-28T21:20:49.632Z,6.82
2023-01-28T21:23:16.513Z,6.03
2023-01-28T21:25:43.987Z,6.22
2023-01-28T21:28:15.640Z,6.47
2023-01-28T21:30:42.480Z,6.45
2023-01-28T21:33:09.537Z,6.50
2023-01-28T21:35:37.589Z,5.83
2023-01-28T21:38:04.690Z,6.78
2023-01-28T21:40:32.464Z,6.55
2023-01-28T21:42:59.107Z,7.68
2023-01-28T21:45:25.887Z,8.00
2023-01-28T21:47:52.716Z,6.47
2023-01-28T21:50:19.297Z,6.88
2023-01-28T21:52:48.630Z,7.22
2023-01-28T21:55:15.890Z,7.18
2023-01-28T21:57:42.362Z,7.20
2023-01-28T22:00:09.828Z,7.30
2023-01-28T22:02:39.382Z,8.32
2023-01-28T22:05:06.434Z,8.40
2023-01-28T22:07:33.044Z,8.05
2023-01-28T22:09:59.587Z,8.27
2023-01-28T22:12:27.619Z,8.60
2023-01-28T22:14:54.410Z,7.55
2023-01-28T22:17:21.163Z,8.60
2023-01-28T22:19:50.349Z,8.77
2023-01-28T22:22:17.934Z,7.38
2023-01-28T22:24:44.750Z,8.00
2023-01-28T22:27:11.486Z,8.52
2023-01-28T22:29:38.068Z,8.60
2023-01-28T22:32:05.468Z,9.05
2023-01-28T22:34:32.514Z,6.93
2023-01-28T22:36:59.161Z,8.73
2023-01-28T22:39:25.688Z,8.50
2023-01-28T22:41:52.361Z,8.40
2023-01-28T22:44:20.034Z,6.78
2023-01-28T22:46:47.240Z,8.13
2023-01-28T22:49:15.893Z,8.07
2023-01-28T22:51:43.019Z,8.00
2023-01-28T22:54:12.117Z,8.80
2023-01-28T22:56:38.705Z,6.47
2023-01-28T22:59:05.542Z,6.20
2023-01-28T23:01:33.114Z,6.20
2023-01-28T23:03:59.792Z,7.95
2023-01-28T23:06:27.895Z,7.28
2023-01-28T23:08:56.484Z,6.95
2023-01-28T23:11:27.515Z,7.68
2023-01-28T23:14:18.797Z,7.30
2023-01-28T23:17:05.239Z,7.90
2023-01-28T23:19:51.297Z,8.43
2023-01-28T23:23:00.803Z,8.20
2023-01-28T23:25:27.516Z,8.48
2023-01-28T23:27:54.163Z,6.90
2023-01-28T23:30:25.283Z,7.20
2023-01-28T23:32:57.119Z,8.57
2023-01-28T23:35:27.383Z,9.32
2023-01-28T23:37:54.594Z,9.73
2023-01-28T23:40:24.436Z,8.13
2023-01-28T23:42:51.749Z,7.18
2023-01-28T23:45:18.837Z,7.80
2023-01-28T23:47:45.380Z,7.75
2023-01-28T23:50:12.375Z,8.45
2023-01-28T23:52:39.065Z,7.00
2023-01-28T23:55:06.261Z,8.00
2023-01-28T23:57:33.563Z,9.40
